Pelican Bay, Texas
Current Conditions -  °F | °C
As of 9:52 AM on Thursday 27 Nov 2014 (Local Time) from KNFW Reporting Station
Clear Clear  
Wind Chill: 50°   Ceiling: Unl
Heat Index: 50°   Visibility: 10mi
Dew Point: 26°   Wind: 7mph
Humidity: 39%   Direction: 20°NNE
Pressure: 30.6"   Gusts: NA
Location:  32.912°N, 97.556°W
Report Text: KNFW 271552Z AUTO 02006KT 10SM CLR 10/M03 A3060 RMK AO2 SLP341 T01001033
Loading
Personal Weather Stations






























Interactive Weather Map New forecast layout! Learn more

10-Day Weather Forecast

Advertisements
Track Severe Weather on mobile